Time;durP1;ratioP1;P1;durP2;ratioP2;P2;SDS_P1;SDS_P2;PMS_P1;PMS_P2;Temp;Humidity;BMP_temperature;BMP_pressure;BME280_temperature;BME280_humidity;BME280_pressure;Samples;Min_cycle;Max_cycle;Signal;HPM_P1;HPM_P2
2022/01/21 00:01:49;;;;;;;17.65;7.03;;;0.80;99.90;;;;;;5030284;28;20097;-58
2022/01/21 00:04:15;;;;;;;21.42;7.18;;;0.70;99.90;;;;;;5030518;28;20095;-56
2022/01/21 00:06:40;;;;;;;29.83;7.82;;;0.70;99.90;;;;;;5030286;28;20033;-59
2022/01/21 00:09:07;;;;;;;27.70;6.75;;;0.70;99.90;;;;;;5030627;28;20031;-59
2022/01/21 00:11:34;;;;;;;27.40;7.65;;;0.70;99.90;;;;;;5030853;28;20040;-60
2022/01/21 00:14:00;;;;;;;24.40;7.00;;;0.70;99.90;;;;;;5029165;28;20514;-59
2022/01/21 00:16:28;;;;;;;19.70;6.10;;;0.70;99.90;;;;;;5036261;28;20029;-58
2022/01/21 00:19:03;;;;;;;26.08;7.20;;;0.70;99.90;;;;;;5028595;28;20108;-59
2022/01/21 00:32:28;;;;;;;19.05;6.25;;;0.70;99.90;;;;;;5029896;28;20079;-59
2022/01/21 00:34:53;;;;;;;29.98;6.47;;;0.60;99.90;;;;;;5025434;28;20074;-60
2022/01/21 00:37:19;;;;;;;22.65;7.03;;;0.60;99.90;;;;;;5027898;28;20025;-58
2022/01/21 00:39:51;;;;;;;18.95;6.50;;;0.60;99.90;;;;;;5029548;28;20085;-59
2022/01/21 00:44:49;;;;;;;26.70;8.88;;;0.60;99.90;;;;;;5023044;28;20034;-58
2022/01/21 00:47:15;;;;;;;30.75;10.35;;;0.70;99.90;;;;;;5018724;28;20075;-59
2022/01/21 00:49:41;;;;;;;24.70;9.07;;;0.70;99.90;;;;;;5030106;28;20029;-58
2022/01/21 00:52:06;;;;;;;34.95;11.25;;;0.80;99.90;;;;;;5029610;28;20427;-60
2022/01/21 00:54:32;;;;;;;35.40;10.63;;;0.80;99.90;;;;;;5029680;28;20032;-58
2022/01/21 00:56:58;;;;;;;26.05;10.70;;;0.80;99.90;;;;;;5018640;28;20087;-59
2022/01/21 00:59:23;;;;;;;43.33;12.57;;;0.90;99.90;;;;;;5016159;28;20030;-60
2022/01/21 01:01:49;;;;;;;33.28;11.68;;;0.80;99.90;;;;;;5019216;28;20018;-59
2022/01/21 01:04:15;;;;;;;39.25;11.75;;;0.90;99.90;;;;;;5021060;28;20021;-59
2022/01/21 01:06:41;;;;;;;35.22;13.25;;;0.90;99.90;;;;;;5018737;28;20032;-58
2022/01/21 01:09:06;;;;;;;41.53;15.25;;;0.90;99.90;;;;;;5024441;28;20036;-59
2022/01/21 01:11:48;;;;;;;37.38;14.82;;;0.90;99.90;;;;;;5029665;28;20041;-59
2022/01/21 01:19:57;;;;;;;40.65;13.73;;;1.00;99.90;;;;;;5029947;28;20033;-60
2022/01/21 01:22:54;;;;;;;33.80;16.13;;;1.00;99.90;;;;;;5025983;28;20024;-57
2022/01/21 01:28:02;;;;;;;35.08;15.38;;;1.10;99.90;;;;;;5029152;28;20040;-60
2022/01/21 01:30:31;;;;;;;33.50;16.60;;;1.00;99.90;;;;;;5029517;28;20029;-58
2022/01/21 01:32:59;;;;;;;34.55;15.68;;;1.00;99.90;;;;;;5028274;28;20040;-59
2022/01/21 01:35:29;;;;;;;45.10;15.98;;;1.00;99.90;;;;;;5027474;28;20091;-60
2022/01/21 01:49:27;;;;;;;36.67;13.07;;;1.00;99.90;;;;;;5025396;28;20172;-59
2022/01/21 01:51:05;;;;;;;38.70;11.07;;;1.10;99.90;;;;;;5017189;28;20588;-59
2022/01/21 01:53:41;;;;;;;29.35;11.75;;;1.00;99.90;;;;;;5027923;28;20030;-59
2022/01/21 01:56:11;;;;;;;29.13;10.18;;;1.00;99.90;;;;;;5031917;28;20112;-60
2022/01/21 01:58:39;;;;;;;25.70;10.15;;;1.00;99.90;;;;;;5027771;28;20513;-59
2022/01/21 02:01:05;;;;;;;35.15;10.40;;;1.00;99.90;;;;;;5030969;28;20496;-60
2022/01/21 02:03:32;;;;;;;27.00;9.65;;;0.90;99.90;;;;;;5031563;28;20029;-60
2022/01/21 02:05:57;;;;;;;36.97;12.27;;;1.00;99.90;;;;;;5022294;28;20051;-59
2022/01/21 02:08:24;;;;;;;31.40;11.75;;;1.00;99.90;;;;;;5029859;28;20576;-58
2022/01/21 02:10:49;;;;;;;34.05;11.93;;;1.00;99.90;;;;;;5025655;28;20033;-59
2022/01/21 02:13:30;;;;;;;32.47;10.00;;;1.00;99.90;;;;;;5025393;28;20037;-58
2022/01/21 02:17:09;;;;;;;24.83;9.70;;;1.00;99.90;;;;;;5025785;28;20030;-60
2022/01/21 02:21:42;;;;;;;32.15;9.63;;;1.00;99.90;;;;;;5030003;28;20032;-58
2022/01/21 02:24:11;;;;;;;26.75;11.30;;;1.00;99.90;;;;;;5022946;28;20025;-60
2022/01/21 02:26:37;;;;;;;32.97;10.95;;;1.00;99.90;;;;;;5032539;28;20398;-59
2022/01/21 02:29:05;;;;;;;35.38;11.60;;;1.00;99.90;;;;;;5023586;28;20025;-56
2022/01/21 02:31:31;;;;;;;31.58;9.65;;;1.00;99.90;;;;;;5026482;28;20075;-59
2022/01/21 02:33:57;;;;;;;26.80;9.10;;;1.00;99.90;;;;;;5026758;28;20509;-60
2022/01/21 02:36:23;;;;;;;25.50;10.32;;;1.00;99.90;;;;;;5027314;28;20017;-55
2022/01/21 02:38:48;;;;;;;24.80;9.15;;;1.00;99.90;;;;;;5029944;28;20030;-60
2022/01/21 02:41:14;;;;;;;23.92;8.90;;;0.90;99.90;;;;;;5028585;28;20048;-60
2022/01/21 02:43:40;;;;;;;29.08;7.05;;;1.00;99.90;;;;;;5011138;28;20129;-60
2022/01/21 02:46:08;;;;;;;28.60;6.97;;;0.90;99.90;;;;;;5031801;28;20038;-60
2022/01/21 02:48:37;;;;;;;23.95;5.95;;;0.90;99.90;;;;;;5031601;28;20060;-60
2022/01/21 02:51:05;;;;;;;29.52;7.25;;;1.00;99.90;;;;;;5032127;28;20044;-59
2022/01/21 02:54:03;;;;;;;23.70;6.25;;;0.90;99.90;;;;;;5030647;28;20499;-60
2022/01/21 02:56:27;;;;;;;30.98;5.63;;;0.90;99.90;;;;;;5030767;28;20068;-60
2022/01/21 02:58:52;;;;;;;29.42;5.88;;;0.90;99.90;;;;;;5031711;28;20037;-60
2022/01/21 03:01:18;;;;;;;28.67;7.32;;;0.90;99.90;;;;;;5031348;28;20025;-58
2022/01/21 03:03:45;;;;;;;17.90;5.95;;;0.90;99.90;;;;;;5031243;28;20030;-59
2022/01/21 03:06:15;;;;;;;22.25;6.00;;;0.90;99.90;;;;;;5031491;28;20033;-60
2022/01/21 03:08:42;;;;;;;31.45;8.02;;;0.90;99.90;;;;;;5031089;28;20175;-61
2022/01/21 03:11:08;;;;;;;22.42;7.43;;;1.00;99.90;;;;;;5030524;28;20079;-59
2022/01/21 03:13:33;;;;;;;21.95;6.28;;;0.90;99.90;;;;;;5029619;28;20108;-60
2022/01/21 03:15:59;;;;;;;28.58;7.13;;;0.90;99.90;;;;;;5029302;28;20040;-59
2022/01/21 03:18:24;;;;;;;34.25;6.13;;;1.00;99.90;;;;;;5028891;28;20028;-54
2022/01/21 03:20:50;;;;;;;26.10;6.82;;;1.00;99.90;;;;;;5031033;28;20033;-57
2022/01/21 03:23:18;;;;;;;22.05;5.75;;;1.00;99.90;;;;;;5026597;28;20587;-60
2022/01/21 03:25:46;;;;;;;29.33;5.75;;;1.00;99.90;;;;;;5027382;28;20018;-60
2022/01/21 03:28:12;;;;;;;39.28;8.52;;;1.00;99.90;;;;;;5030144;28;20407;-60
2022/01/21 03:30:39;;;;;;;45.63;11.30;;;0.90;99.90;;;;;;5025080;28;20072;-60
2022/01/21 03:33:05;;;;;;;31.05;11.40;;;0.90;99.90;;;;;;5033642;28;20033;-60
2022/01/21 03:35:31;;;;;;;42.03;13.98;;;0.90;99.90;;;;;;5028980;28;20033;-60
2022/01/21 03:37:57;;;;;;;37.60;11.93;;;0.90;99.90;;;;;;5028065;28;20537;-60
2022/01/21 03:40:23;;;;;;;32.03;13.55;;;0.90;99.90;;;;;;5030945;28;20042;-59
2022/01/21 03:42:48;;;;;;;39.38;14.02;;;0.90;99.90;;;;;;5012911;28;20479;-60
2022/01/21 03:45:14;;;;;;;40.53;13.00;;;0.80;99.90;;;;;;5029216;28;20104;-59
2022/01/21 03:47:41;;;;;;;32.47;12.75;;;0.80;99.90;;;;;;5029401;28;20021;-60
2022/01/21 03:50:22;;;;;;;40.38;13.32;;;0.80;99.90;;;;;;5030393;28;20451;-60
2022/01/21 03:52:47;;;;;;;28.20;12.55;;;0.80;99.90;;;;;;5030149;28;20056;-60
2022/01/21 03:55:13;;;;;;;41.90;14.02;;;0.80;99.90;;;;;;5029975;28;20426;-59
2022/01/21 03:57:39;;;;;;;36.65;13.63;;;0.80;99.90;;;;;;5030370;28;20033;-60
2022/01/21 04:00:08;;;;;;;50.13;18.35;;;0.80;99.90;;;;;;5030609;28;20044;-59
2022/01/21 04:02:33;;;;;;;47.55;13.82;;;0.80;99.90;;;;;;5023510;28;20033;-58
2022/01/21 04:04:59;;;;;;;37.88;13.07;;;0.80;99.90;;;;;;5030346;28;20033;-60
2022/01/21 04:07:24;;;;;;;40.05;14.27;;;0.80;99.90;;;;;;5029908;28;20033;-60
2022/01/21 04:09:50;;;;;;;43.58;14.02;;;0.90;99.90;;;;;;5029081;28;20095;-59
2022/01/21 04:12:16;;;;;;;34.47;13.57;;;0.90;99.90;;;;;;5028892;28;20104;-59
2022/01/21 04:14:42;;;;;;;31.55;12.25;;;0.90;99.90;;;;;;5021975;28;20398;-59
2022/01/21 04:17:08;;;;;;;37.47;11.90;;;0.90;99.90;;;;;;5027416;28;20029;-59
2022/01/21 04:19:33;;;;;;;49.13;14.07;;;1.00;99.90;;;;;;5026236;28;20045;-60
2022/01/21 04:21:59;;;;;;;41.00;12.43;;;1.00;99.90;;;;;;5025206;28;21365;-57
2022/01/21 04:24:25;;;;;;;44.33;14.75;;;1.00;99.90;;;;;;5028590;28;20037;-59
2022/01/21 04:26:50;;;;;;;49.33;15.63;;;0.90;99.90;;;;;;5025076;28;20096;-59
2022/01/21 04:29:16;;;;;;;32.78;14.55;;;0.90;99.90;;;;;;5029626;28;20116;-59
2022/01/21 04:31:42;;;;;;;42.83;15.27;;;0.90;99.90;;;;;;5026010;28;20732;-59
2022/01/21 04:34:07;;;;;;;46.33;15.50;;;0.90;99.90;;;;;;5025377;28;20041;-59
2022/01/21 04:36:34;;;;;;;51.92;17.27;;;0.90;99.90;;;;;;5029412;28;20048;-59
2022/01/21 04:39:01;;;;;;;39.00;14.55;;;0.90;99.90;;;;;;5027464;28;20037;-59
2022/01/21 04:49:36;;;;;;;32.92;10.73;;;1.00;99.90;;;;;;5030072;28;20520;-58
2022/01/21 04:52:02;;;;;;;34.80;9.38;;;1.10;99.90;;;;;;5028520;28;20021;-60
2022/01/21 04:54:32;;;;;;;26.92;10.57;;;1.00;99.90;;;;;;5029312;28;20061;-58
2022/01/21 04:56:58;;;;;;;33.47;13.20;;;1.00;99.90;;;;;;5029195;28;20059;-59
2022/01/21 04:59:24;;;;;;;36.58;14.70;;;1.00;99.90;;;;;;5029533;28;20029;-59
2022/01/21 05:01:51;;;;;;;43.90;14.07;;;1.00;99.90;;;;;;5028216;28;20384;-59
2022/01/21 05:04:18;;;;;;;36.22;12.95;;;1.10;99.90;;;;;;5027455;28;20025;-60
2022/01/21 05:06:44;;;;;;;36.15;12.93;;;1.00;99.90;;;;;;5024595;28;20126;-58
2022/01/21 05:09:09;;;;;;;42.40;12.95;;;1.10;99.90;;;;;;5029829;28;20033;-57
2022/01/21 05:11:37;;;;;;;40.95;14.45;;;1.10;99.90;;;;;;5017069;28;20033;-59
2022/01/21 05:17:03;;;;;;;26.23;10.90;;;1.10;99.90;;;;;;5010312;28;20096;-59
2022/01/21 05:19:28;;;;;;;36.42;11.52;;;1.10;99.90;;;;;;5026133;28;20033;-59
2022/01/21 05:21:54;;;;;;;25.73;11.27;;;1.10;99.90;;;;;;5025499;28;20087;-59
2022/01/21 05:24:21;;;;;;;40.25;12.23;;;1.10;99.90;;;;;;5028635;28;20025;-58
2022/01/21 05:26:57;;;;;;;38.42;9.50;;;1.10;99.90;;;;;;5026072;28;20053;-59
2022/01/21 05:29:30;;;;;;;37.92;9.93;;;1.10;99.90;;;;;;5032418;28;20504;-59
2022/01/21 05:31:57;;;;;;;28.48;9.50;;;1.20;99.90;;;;;;5032560;28;20021;-59
2022/01/21 05:34:23;;;;;;;37.38;10.00;;;1.10;99.90;;;;;;5030926;28;20048;-59
2022/01/21 05:36:48;;;;;;;23.85;9.43;;;1.10;99.90;;;;;;5028615;28;20490;-59
2022/01/21 05:39:16;;;;;;;28.63;9.38;;;1.20;99.90;;;;;;5032618;28;20582;-59
2022/01/21 05:41:47;;;;;;;26.10;9.93;;;1.20;99.90;;;;;;5032534;28;20029;-59
2022/01/21 05:44:20;;;;;;;32.30;9.95;;;1.10;99.90;;;;;;5015026;28;20060;-60
2022/01/21 05:46:55;;;;;;;34.10;11.43;;;1.20;99.90;;;;;;5031664;28;20507;-58
2022/01/21 05:49:26;;;;;;;32.15;10.35;;;1.20;99.90;;;;;;5017969;28;20279;-59
2022/01/21 05:51:54;;;;;;;38.75;12.48;;;1.20;99.90;;;;;;5025817;28;20029;-59
2022/01/21 05:54:25;;;;;;;25.48;8.95;;;1.20;99.90;;;;;;5034882;28;20024;-59
2022/01/21 05:56:50;;;;;;;33.88;10.32;;;1.20;99.90;;;;;;5031123;28;20029;-59
2022/01/21 05:59:16;;;;;;;32.72;9.38;;;1.20;99.90;;;;;;5033569;28;20028;-59
2022/01/21 06:01:41;;;;;;;26.33;8.15;;;1.20;99.90;;;;;;5028776;28;20037;-57
2022/01/21 06:04:07;;;;;;;28.50;9.32;;;1.20;99.90;;;;;;5031475;28;20140;-59
2022/01/21 06:06:33;;;;;;;30.30;8.38;;;1.20;99.90;;;;;;5031879;28;20021;-58
2022/01/21 06:08:58;;;;;;;20.63;7.35;;;1.20;99.90;;;;;;5032660;28;20051;-59
2022/01/21 06:11:24;;;;;;;18.83;7.38;;;1.20;99.90;;;;;;5033292;28;20118;-57
2022/01/21 06:13:50;;;;;;;23.75;7.18;;;1.20;99.90;;;;;;5031872;28;20033;-60
2022/01/21 06:16:17;;;;;;;25.88;6.32;;;1.20;99.90;;;;;;5031965;28;20082;-58
2022/01/21 06:18:43;;;;;;;28.02;7.03;;;1.20;99.90;;;;;;5032220;28;20694;-57
2022/01/21 06:21:09;;;;;;;33.40;7.78;;;1.20;99.90;;;;;;5032567;28;20029;-60
2022/01/21 06:23:35;;;;;;;29.42;7.10;;;1.20;99.90;;;;;;5031890;28;20414;-59
2022/01/21 06:26:01;;;;;;;28.80;7.10;;;1.20;99.90;;;;;;5032719;28;20022;-58
2022/01/21 06:28:26;;;;;;;26.30;8.63;;;1.20;99.90;;;;;;5031608;28;20029;-58
2022/01/21 06:30:52;;;;;;;25.00;7.20;;;1.20;99.90;;;;;;5030239;28;20021;-59
2022/01/21 06:33:20;;;;;;;29.02;7.00;;;1.20;99.90;;;;;;5030439;28;20480;-60
2022/01/21 06:35:46;;;;;;;22.85;7.50;;;1.20;99.90;;;;;;5030927;28;20048;-54
2022/01/21 06:38:12;;;;;;;25.80;6.63;;;1.20;99.90;;;;;;5027714;28;20037;-57
2022/01/21 06:40:37;;;;;;;17.05;5.63;;;1.20;99.90;;;;;;5019105;28;20030;-59
2022/01/21 06:43:03;;;;;;;25.55;5.32;;;1.20;99.90;;;;;;5031194;28;20027;-58
2022/01/21 06:45:30;;;;;;;22.17;5.60;;;1.30;99.90;;;;;;5028882;28;20087;-59
2022/01/21 06:47:58;;;;;;;24.83;5.38;;;1.30;99.90;;;;;;5028156;28;20068;-59
2022/01/21 06:50:25;;;;;;;19.90;5.53;;;1.30;99.90;;;;;;5028848;28;20391;-59
2022/01/21 06:52:50;;;;;;;22.73;6.50;;;1.30;99.90;;;;;;5024452;28;20029;-55
2022/01/21 06:55:17;;;;;;;23.35;6.38;;;1.30;99.90;;;;;;5027517;28;20158;-58
2022/01/21 06:57:43;;;;;;;31.70;6.15;;;1.30;99.90;;;;;;5029969;28;20032;-57
2022/01/21 07:00:13;;;;;;;19.38;5.57;;;1.30;99.90;;;;;;5030555;28;20017;-57
2022/01/21 07:02:39;;;;;;;21.13;6.38;;;1.30;99.90;;;;;;5028291;28;20546;-59
2022/01/21 07:05:06;;;;;;;22.58;5.53;;;1.30;99.90;;;;;;5029934;28;20097;-59
2022/01/21 07:07:33;;;;;;;21.85;6.15;;;1.30;99.90;;;;;;5027030;28;20037;-60
2022/01/21 07:10:00;;;;;;;25.45;5.22;;;1.30;99.90;;;;;;5021962;28;20088;-59
2022/01/21 07:12:26;;;;;;;24.50;6.10;;;1.30;99.90;;;;;;5028139;28;20128;-59
2022/01/21 07:14:52;;;;;;;24.00;6.80;;;1.40;99.90;;;;;;5030733;28;20029;-58
2022/01/21 07:17:17;;;;;;;22.50;5.82;;;1.40;99.90;;;;;;5024405;28;20035;-59
2022/01/21 07:19:43;;;;;;;34.88;6.38;;;1.30;99.90;;;;;;5029074;28;20057;-59
2022/01/21 07:22:08;;;;;;;22.83;5.78;;;1.30;99.90;;;;;;5025031;28;20537;-59
2022/01/21 07:24:34;;;;;;;23.85;5.60;;;1.30;99.90;;;;;;5027970;28;20556;-58
2022/01/21 07:26:59;;;;;;;22.27;5.32;;;1.30;99.90;;;;;;5029872;28;20115;-58
2022/01/21 07:29:25;;;;;;;26.10;4.63;;;1.30;99.90;;;;;;5030842;28;20104;-58
2022/01/21 07:31:54;;;;;;;33.40;6.65;;;1.30;99.90;;;;;;5030588;28;20036;-57
2022/01/21 07:34:20;;;;;;;22.88;5.85;;;1.30;99.90;;;;;;5031142;28;20049;-59
2022/01/21 07:36:46;;;;;;;16.20;5.07;;;1.40;99.90;;;;;;5030394;28;20029;-58
2022/01/21 07:39:12;;;;;;;40.50;6.88;;;1.40;99.90;;;;;;5029784;28;20041;-58
2022/01/21 07:41:37;;;;;;;23.40;6.25;;;1.40;99.90;;;;;;5029660;28;20033;-59
2022/01/21 07:44:03;;;;;;;35.78;6.70;;;1.40;99.90;;;;;;5028342;28;20037;-57
2022/01/21 07:46:29;;;;;;;19.13;6.72;;;1.40;99.90;;;;;;5027030;28;20072;-59
2022/01/21 07:48:56;;;;;;;28.55;6.25;;;1.40;99.90;;;;;;5027571;28;20036;-59
2022/01/21 07:51:22;;;;;;;22.88;6.65;;;1.40;99.90;;;;;;5023883;28;20060;-57
2022/01/21 07:53:48;;;;;;;26.58;7.03;;;1.40;99.90;;;;;;5029585;28;20053;-56
2022/01/21 07:56:13;;;;;;;21.65;5.97;;;1.50;99.90;;;;;;5029539;28;20022;-59
2022/01/21 07:58:39;;;;;;;20.30;5.63;;;1.50;99.90;;;;;;5022401;28;20025;-59
2022/01/21 08:01:04;;;;;;;30.45;8.80;;;1.50;99.90;;;;;;5025118;28;20033;-59
2022/01/21 08:03:30;;;;;;;27.38;8.40;;;1.50;99.90;;;;;;5025738;28;20060;-58
2022/01/21 08:05:55;;;;;;;24.17;9.20;;;1.50;99.90;;;;;;5019258;28;20029;-58
2022/01/21 08:08:21;;;;;;;22.05;9.05;;;1.50;99.90;;;;;;5026159;28;20022;-58
2022/01/21 08:10:47;;;;;;;38.33;10.55;;;1.50;99.90;;;;;;5028633;28;20039;-59
2022/01/21 08:13:12;;;;;;;35.58;10.98;;;1.50;99.90;;;;;;5030256;28;20037;-58
2022/01/21 08:15:38;;;;;;;24.38;11.85;;;1.60;99.90;;;;;;5029952;28;20026;-58
2022/01/21 08:18:04;;;;;;;31.48;12.10;;;1.60;99.90;;;;;;5029439;28;20112;-58
2022/01/21 08:20:30;;;;;;;34.78;12.35;;;1.50;99.90;;;;;;5028167;28;20065;-59
2022/01/21 08:22:55;;;;;;;32.83;12.27;;;1.60;99.90;;;;;;5028073;28;20029;-59
2022/01/21 08:25:21;;;;;;;27.75;12.85;;;1.60;99.90;;;;;;5027328;28;20029;-59
2022/01/21 08:27:47;;;;;;;32.60;12.05;;;1.60;99.90;;;;;;5027060;28;20041;-58
2022/01/21 08:30:13;;;;;;;32.70;14.15;;;1.60;99.90;;;;;;5028214;28;20127;-59
2022/01/21 08:32:39;;;;;;;34.83;12.88;;;1.60;99.90;;;;;;5024005;28;20040;-58
2022/01/21 08:35:09;;;;;;;41.80;15.43;;;1.60;99.90;;;;;;5027522;28;20029;-59
2022/01/21 08:37:35;;;;;;;44.90;17.42;;;1.70;99.90;;;;;;5025792;28;20034;-59
2022/01/21 08:40:02;;;;;;;37.50;17.25;;;1.70;99.90;;;;;;5023533;28;20029;-60
2022/01/21 08:42:27;;;;;;;51.03;17.60;;;1.70;99.90;;;;;;5027109;28;20503;-59
2022/01/21 08:44:53;;;;;;;40.67;14.50;;;1.70;99.90;;;;;;5026422;28;20032;-58
2022/01/21 08:47:21;;;;;;;38.75;15.88;;;1.70;99.90;;;;;;5024001;28;20360;-58
2022/01/21 08:49:48;;;;;;;36.55;15.88;;;1.80;99.90;;;;;;5028560;28;20021;-58
2022/01/21 08:52:19;;;;;;;36.70;14.80;;;1.90;99.90;;;;;;5030438;28;20038;-58
2022/01/21 08:54:47;;;;;;;31.33;13.32;;;1.90;99.90;;;;;;5025970;28;20038;-59
2022/01/21 08:57:14;;;;;;;29.42;13.98;;;1.90;99.90;;;;;;5029464;28;20040;-59
2022/01/21 08:59:39;;;;;;;28.95;15.02;;;1.90;99.90;;;;;;5027601;28;20029;-57
2022/01/21 09:02:05;;;;;;;34.15;14.93;;;1.90;99.90;;;;;;5024875;28;20030;-57
2022/01/21 09:04:32;;;;;;;32.22;13.50;;;1.90;99.90;;;;;;5028954;28;20506;-58
2022/01/21 09:06:58;;;;;;;39.35;15.23;;;1.90;99.90;;;;;;5025993;28;20026;-57
2022/01/21 09:09:25;;;;;;;43.15;14.93;;;1.90;99.90;;;;;;5029483;28;20029;-59
2022/01/21 09:11:53;;;;;;;48.38;17.70;;;1.90;99.90;;;;;;5028540;28;20041;-58
2022/01/21 09:14:19;;;;;;;39.60;18.23;;;1.90;99.90;;;;;;5019789;28;20071;-59
2022/01/21 09:16:45;;;;;;;43.47;16.23;;;1.90;99.90;;;;;;5026328;28;20788;-58
2022/01/21 09:19:11;;;;;;;34.55;16.38;;;1.90;99.90;;;;;;5033776;28;20045;-58
2022/01/21 09:21:41;;;;;;;31.90;15.68;;;1.90;99.90;;;;;;5028646;28;20052;-59
2022/01/21 09:24:07;;;;;;;39.72;16.35;;;1.90;99.90;;;;;;5029085;28;20033;-59
2022/01/21 09:26:32;;;;;;;54.50;18.90;;;2.00;99.90;;;;;;5027875;28;20036;-60
2022/01/21 09:29:00;;;;;;;61.03;26.88;;;2.00;99.90;;;;;;5028096;28;20487;-59
2022/01/21 09:31:26;;;;;;;45.85;19.50;;;2.20;99.90;;;;;;5027832;28;20135;-59
2022/01/21 09:33:52;;;;;;;41.70;17.60;;;2.20;99.90;;;;;;5028711;28;20459;-57
2022/01/21 09:36:19;;;;;;;45.38;17.63;;;2.40;99.90;;;;;;5024500;28;20036;-60
2022/01/21 09:38:45;;;;;;;46.95;17.35;;;2.50;99.90;;;;;;5026642;28;20104;-59
2022/01/21 09:41:12;;;;;;;37.50;16.63;;;2.60;99.90;;;;;;5029513;28;20409;-59
2022/01/21 09:43:39;;;;;;;36.28;16.73;;;2.60;99.90;;;;;;5027640;28;20568;-58
2022/01/21 09:46:07;;;;;;;54.00;18.73;;;2.60;99.90;;;;;;5025980;28;20025;-58
2022/01/21 09:48:48;;;;;;;36.13;16.58;;;2.70;99.90;;;;;;5028221;28;20029;-59
2022/01/21 09:51:15;;;;;;;45.55;20.08;;;2.70;99.90;;;;;;5028505;28;20029;-59
2022/01/21 09:53:42;;;;;;;39.42;17.88;;;2.70;99.90;;;;;;5024796;28;20116;-58
2022/01/21 09:56:09;;;;;;;39.53;17.15;;;2.80;99.90;;;;;;5023189;28;20033;-58
2022/01/21 09:58:34;;;;;;;40.53;16.17;;;2.80;99.90;;;;;;5026466;28;20376;-59
2022/01/21 10:01:05;;;;;;;40.03;15.75;;;2.90;99.90;;;;;;5027713;28;20030;-59
2022/01/21 10:03:32;;;;;;;37.10;16.67;;;2.90;99.90;;;;;;5026433;28;20025;-58
2022/01/21 10:05:57;;;;;;;33.35;15.77;;;2.90;99.90;;;;;;5027951;28;20026;-59
2022/01/21 10:08:24;;;;;;;31.95;14.05;;;3.00;99.90;;;;;;5027656;28;20394;-59
2022/01/21 10:10:50;;;;;;;32.90;14.73;;;3.10;99.90;;;;;;5025493;28;20045;-60
2022/01/21 10:13:18;;;;;;;39.10;15.70;;;3.20;99.90;;;;;;5029012;28;20530;-59
2022/01/21 10:15:44;;;;;;;33.42;13.35;;;3.30;99.90;;;;;;5031416;28;20440;-58
2022/01/21 10:18:15;;;;;;;30.05;13.07;;;3.30;99.90;;;;;;5030120;28;20029;-59
2022/01/21 10:20:59;;;;;;;30.40;13.50;;;3.40;99.90;;;;;;5018808;28;20129;-58
2022/01/21 10:23:26;;;;;;;27.47;13.57;;;3.40;99.90;;;;;;5030025;28;20029;-60
2022/01/21 10:26:06;;;;;;;36.80;12.85;;;3.30;99.90;;;;;;5033083;28;20269;-59
2022/01/21 10:28:33;;;;;;;25.23;13.45;;;3.30;99.90;;;;;;5032936;28;20052;-59
2022/01/21 10:31:10;;;;;;;31.10;14.60;;;3.20;99.90;;;;;;5029280;28;20044;-59
2022/01/21 10:33:59;;;;;;;25.15;12.95;;;3.30;99.90;;;;;;5031181;28;20056;-60
2022/01/21 10:36:29;;;;;;;30.38;14.90;;;3.30;99.90;;;;;;5024638;28;20383;-60
2022/01/21 10:38:59;;;;;;;38.33;15.77;;;3.30;99.90;;;;;;5029844;28;20057;-60
2022/01/21 10:41:31;;;;;;;28.50;15.43;;;3.40;99.90;;;;;;5031121;28;20030;-59
2022/01/21 10:44:12;;;;;;;27.98;14.90;;;3.60;99.90;;;;;;5032393;28;20025;-58
2022/01/21 10:46:40;;;;;;;41.28;18.60;;;3.70;99.90;;;;;;5033144;28;20037;-59
2022/01/21 10:49:09;;;;;;;36.10;17.15;;;3.70;99.90;;;;;;5032169;28;20034;-59
2022/01/21 10:51:37;;;;;;;36.65;14.88;;;3.70;99.90;;;;;;5027050;28;20017;-59
2022/01/21 10:54:18;;;;;;;30.63;14.13;;;3.70;99.90;;;;;;5028546;28;20148;-60
2022/01/21 10:57:07;;;;;;;33.83;15.30;;;3.70;99.90;;;;;;5030181;28;20576;-59
2022/01/21 11:00:03;;;;;;;37.47;16.00;;;3.70;99.90;;;;;;5028755;28;20033;-58
2022/01/21 11:02:32;;;;;;;33.40;14.45;;;3.60;99.90;;;;;;5027305;28;20033;-57
2022/01/21 11:05:00;;;;;;;39.20;15.73;;;3.70;99.90;;;;;;5027532;28;20135;-59
2022/01/21 11:07:50;;;;;;;25.88;15.23;;;3.80;99.90;;;;;;5031252;28;20390;-58
2022/01/21 11:10:37;;;;;;;32.53;15.05;;;3.80;99.90;;;;;;5025400;28;20036;-57
2022/01/21 11:13:23;;;;;;;24.83;13.63;;;3.90;99.90;;;;;;5027038;28;20348;-60
2022/01/21 11:15:48;;;;;;;28.77;12.95;;;4.00;99.90;;;;;;5023359;28;20487;-58
2022/01/21 11:18:19;;;;;;;25.50;14.02;;;4.20;99.90;;;;;;5031745;28;20053;-58
2022/01/21 11:20:48;;;;;;;29.83;14.45;;;4.10;99.90;;;;;;5022123;28;20050;-59
2022/01/21 11:23:16;;;;;;;31.38;13.05;;;4.20;99.90;;;;;;5028937;28;20096;-60
2022/01/21 11:25:43;;;;;;;31.63;13.23;;;4.20;99.90;;;;;;5031668;28;20026;-59
2022/01/21 11:28:10;;;;;;;28.30;12.80;;;4.20;99.90;;;;;;5027948;28;20544;-59
2022/01/21 11:30:35;;;;;;;29.42;13.48;;;4.20;99.90;;;;;;5028656;28;20056;-58
2022/01/21 11:33:01;;;;;;;29.67;13.82;;;4.20;99.90;;;;;;5030982;28;20030;-60
2022/01/21 11:35:29;;;;;;;26.23;11.07;;;4.10;99.90;;;;;;5031747;28;20495;-59
2022/01/21 11:37:55;;;;;;;28.33;11.75;;;4.20;99.90;;;;;;5029817;28;20029;-58
2022/01/21 11:40:24;;;;;;;26.50;11.32;;;4.20;99.90;;;;;;5030597;28;20049;-59
2022/01/21 11:42:54;;;;;;;23.20;11.10;;;4.40;99.90;;;;;;5029494;28;20515;-59
2022/01/21 11:48:49;;;;;;;23.05;10.65;;;4.60;99.90;;;;;;5030948;28;20030;-60
2022/01/21 11:50:48;;;;;;;24.48;11.10;;;4.50;99.90;;;;;;5017200;28;20041;-60
2022/01/21 11:53:15;;;;;;;16.65;9.55;;;4.60;99.90;;;;;;5021162;28;20037;-59
2022/01/21 11:55:47;;;;;;;27.48;9.80;;;4.60;99.90;;;;;;5020720;28;20037;-59
2022/01/21 11:58:18;;;;;;;22.10;8.85;;;4.60;99.90;;;;;;5025505;28;20028;-60
2022/01/21 12:00:47;;;;;;;19.80;8.25;;;4.70;99.90;;;;;;5030558;28;20030;-61
2022/01/21 12:03:13;;;;;;;25.60;9.00;;;4.90;99.90;;;;;;5022868;28;20049;-60
2022/01/21 12:05:39;;;;;;;18.27;7.88;;;4.80;99.90;;;;;;5025577;28;20529;-59
2022/01/21 12:08:05;;;;;;;21.10;8.23;;;4.90;99.90;;;;;;5025045;28;20392;-60
2022/01/21 12:10:34;;;;;;;22.42;9.10;;;4.90;99.90;;;;;;5020884;28;20033;-59
2022/01/21 12:13:12;;;;;;;22.63;7.95;;;5.00;99.90;;;;;;5024108;28;20364;-60
2022/01/21 12:18:38;;;;;;;23.35;11.20;;;5.00;99.90;;;;;;5029650;28;20068;-59
2022/01/21 12:21:28;;;;;;;22.35;8.35;;;5.00;99.90;;;;;;5030149;28;20101;-60
2022/01/21 12:23:54;;;;;;;27.52;9.30;;;4.90;99.90;;;;;;5028639;28;20056;-59
2022/01/21 12:26:20;;;;;;;12.60;6.55;;;4.90;99.90;;;;;;5025087;28;20156;-60
2022/01/21 12:29:14;;;;;;;14.77;6.65;;;4.90;99.90;;;;;;5030254;28;20029;-60
2022/01/21 12:31:47;;;;;;;23.13;8.95;;;5.00;99.90;;;;;;5030002;28;20075;-60
2022/01/21 12:34:15;;;;;;;18.23;6.72;;;4.90;99.90;;;;;;5028612;28;20037;-60
2022/01/21 12:37:04;;;;;;;19.05;6.10;;;4.90;99.90;;;;;;5024217;28;20510;-60
2022/01/21 12:39:42;;;;;;;20.55;7.03;;;5.00;99.90;;;;;;5030762;28;20124;-60
2022/01/21 12:42:23;;;;;;;19.27;7.95;;;5.00;99.90;;;;;;5013950;28;20387;-60
2022/01/21 12:44:54;;;;;;;16.10;6.43;;;5.00;99.90;;;;;;5014570;28;20033;-60
2022/01/21 12:47:48;;;;;;;19.45;6.38;;;5.00;99.90;;;;;;5029137;28;20106;-60
2022/01/21 12:50:31;;;;;;;15.90;5.70;;;4.90;99.90;;;;;;5028777;28;20168;-60
2022/01/21 12:58:13;;;;;;;15.10;5.53;;;4.90;99.90;;;;;;5029552;28;20040;-60
2022/01/21 13:00:39;;;;;;;17.80;5.00;;;5.00;99.90;;;;;;5030043;28;20482;-60
2022/01/21 13:03:14;;;;;;;14.43;4.85;;;5.00;99.90;;;;;;5029417;28;20029;-59
2022/01/21 13:05:44;;;;;;;18.83;6.35;;;5.10;99.90;;;;;;5030660;28;20079;-60
2022/01/21 13:08:33;;;;;;;16.83;4.35;;;5.20;99.90;;;;;;5029488;28;20025;-60
2022/01/21 13:11:16;;;;;;;15.18;4.15;;;5.20;99.90;;;;;;5029954;28;20033;-59
2022/01/21 13:16:27;;;;;;;16.83;4.68;;;5.20;99.90;;;;;;5029823;28;20041;-60
2022/01/21 13:19:04;;;;;;;26.73;5.07;;;5.20;99.90;;;;;;5027542;28;20079;-58
2022/01/21 13:21:32;;;;;;;15.93;5.25;;;5.20;99.90;;;;;;5025960;28;20108;-59
2022/01/21 13:24:00;;;;;;;17.00;4.10;;;5.10;99.90;;;;;;5016580;28;20061;-60
2022/01/21 13:26:39;;;;;;;11.05;5.05;;;5.00;99.90;;;;;;5024989;28;20403;-60
2022/01/21 13:29:11;;;;;;;15.18;5.25;;;5.00;99.90;;;;;;5028711;28;20498;-60
2022/01/21 13:31:52;;;;;;;19.35;4.10;;;4.90;99.90;;;;;;5023462;28;20034;-58
2022/01/21 13:34:21;;;;;;;14.95;4.55;;;5.00;99.90;;;;;;5021371;28;20030;-59
2022/01/21 13:36:54;;;;;;;17.27;5.03;;;5.00;99.90;;;;;;5028556;28;20024;-60
2022/01/21 13:39:25;;;;;;;20.50;6.10;;;5.10;99.90;;;;;;5028321;28;20120;-59
2022/01/21 13:42:11;;;;;;;10.98;4.32;;;5.00;99.90;;;;;;5033229;28;20049;-58
2022/01/21 13:44:44;;;;;;;17.70;4.57;;;4.90;99.90;;;;;;5014420;28;20075;-58
2022/01/21 13:47:31;;;;;;;13.30;4.23;;;4.90;99.90;;;;;;5026468;28;20102;-59
2022/01/21 13:50:05;;;;;;;16.05;4.72;;;4.80;99.90;;;;;;5026765;28;20120;-59